Terminal Aerodrome Forecast
Issued by NWS

Home | Current Version | Previous Version | Text Only | Print | Product List | Glossary On
Versions: 1 2 3 4 5 6 7 8 9 10 11 12 13
587
FTUS46 KSEW 060530
TAFPAE
TAF
KPAE 060530Z 0606/0706 13004KT P6SM BKN035 BKN045
      TEMPO 0606/0610 SCT007 BKN022
     FM061000 08003KT P6SM SCT016 BKN035
      TEMPO 0610/0614 4SM BR BKN016
     FM061600 02005KT P6SM OVC100
     FM062000 36006KT P6SM BKN250=

USA.gov is the U.S. government's official web portal to all federal, state and local government web resources and services.